Time;durP1;ratioP1;P1;durP2;ratioP2;P2;SDS_P1;SDS_P2;PMS_P1;PMS_P2;Temp;Humidity;BMP_temperature;BMP_pressure;BME280_temperature;BME280_humidity;BME280_pressure;Samples;Min_cycle;Max_cycle;Signal;HPM_P1;HPM_P2
2023/12/07 00:00:28;;;;;;;23.17;18.08;;;;;;;-0.57;100.00;101829.63;1031255;28;20317;-92
2023/12/07 00:01:00;;;;;;;21.38;18.88;;;;;;;-0.53;100.00;101818.81;1031051;28;20317;-92
2023/12/07 00:01:34;;;;;;;23.08;19.60;;;;;;;-0.52;100.00;101823.09;1031663;28;20330;-92
2023/12/07 00:02:05;;;;;;;24.48;18.25;;;;;;;-0.50;100.00;101820.38;1038467;28;20305;-91
2023/12/07 00:02:37;;;;;;;24.70;18.63;;;;;;;-0.52;100.00;101823.09;1034532;28;20281;-91
2023/12/07 00:03:09;;;;;;;24.88;19.13;;;;;;;-0.46;100.00;101825.25;1031079;28;20297;-91
2023/12/07 00:03:41;;;;;;;23.83;19.73;;;;;;;-0.43;100.00;101827.63;1026893;29;20360;-92
2023/12/07 00:04:12;;;;;;;24.65;20.08;;;;;;;-0.44;100.00;101822.50;1035797;28;20309;-92
2023/12/07 00:04:44;;;;;;;24.30;19.58;;;;;;;-0.40;100.00;101821.31;1033769;28;20337;-92
2023/12/07 00:05:16;;;;;;;24.83;20.08;;;;;;;-0.42;100.00;101817.97;1035371;28;20313;-91
2023/12/07 00:05:47;;;;;;;24.45;18.58;;;;;;;-0.41;100.00;101823.09;1035168;28;20664;-91
2023/12/07 00:06:19;;;;;;;23.17;19.50;;;;;;;-0.48;100.00;101828.94;1039188;28;20308;-92
2023/12/07 00:06:51;;;;;;;24.15;19.90;;;;;;;-0.50;100.00;101826.44;1035795;28;20301;-91
2023/12/07 00:07:23;;;;;;;24.17;19.00;;;;;;;-0.48;100.00;101819.28;1038360;28;20348;-91
2023/12/07 00:07:54;;;;;;;25.52;19.77;;;;;;;-0.46;100.00;101825.25;1030932;28;20669;-91
2023/12/07 00:08:26;;;;;;;27.23;20.23;;;;;;;-0.45;100.00;101829.53;1035205;28;20301;-91
2023/12/07 00:09:00;;;;;;;26.20;19.77;;;;;;;-0.42;100.00;101828.44;1038927;28;20364;-91
2023/12/07 00:09:31;;;;;;;25.83;19.92;;;;;;;-0.47;100.00;101820.97;1035736;28;20305;-91
2023/12/07 00:10:04;;;;;;;27.85;19.85;;;;;;;-0.45;100.00;101821.66;1034050;28;20718;-92
2023/12/07 00:10:35;;;;;;;25.55;20.45;;;;;;;-0.39;100.00;101828.19;1035287;28;20301;-92
2023/12/07 00:11:07;;;;;;;27.73;20.35;;;;;;;-0.39;100.00;101828.19;1035794;28;20297;-92
2023/12/07 00:11:39;;;;;;;24.75;20.27;;;;;;;-0.38;100.00;101830.69;1030362;28;20317;-92
2023/12/07 00:12:10;;;;;;;24.52;21.50;;;;;;;-0.25;100.00;101824.50;1033938;28;20804;-91
2023/12/07 00:12:42;;;;;;;25.35;20.70;;;;;;;-0.21;100.00;101831.16;1034693;28;20301;-92
2023/12/07 00:13:14;;;;;;;26.55;21.05;;;;;;;-0.28;100.00;101828.19;1035448;28;20309;-92
2023/12/07 00:13:46;;;;;;;25.75;21.00;;;;;;;-0.28;100.00;101829.97;1033695;28;20293;-91
2023/12/07 00:14:18;;;;;;;27.15;20.85;;;;;;;-0.28;100.00;101828.19;1037386;28;20308;-91
2023/12/07 00:14:49;;;;;;;26.48;21.30;;;;;;;-0.28;100.00;101829.97;1033934;28;20285;-92
2023/12/07 00:15:21;;;;;;;27.23;20.77;;;;;;;-0.24;100.00;101826.16;1029544;28;20784;-91
2023/12/07 00:15:52;;;;;;;26.67;21.83;;;;;;;-0.27;100.00;101826.38;1033500;28;20355;-91
2023/12/07 00:16:24;;;;;;;26.45;20.48;;;;;;;-0.21;100.00;101821.53;1033634;28;20293;-92
2023/12/07 00:16:57;;;;;;;26.67;20.75;;;;;;;-0.22;100.00;101826.88;1037624;28;20309;-92
2023/12/07 00:17:28;;;;;;;27.42;21.60;;;;;;;-0.32;100.00;101819.72;1037937;28;20316;-91
2023/12/07 00:18:00;;;;;;;26.20;21.10;;;;;;;-0.26;100.00;101828.09;1034142;28;20395;-92
2023/12/07 00:18:32;;;;;;;28.73;20.80;;;;;;;-0.14;100.00;101827.09;1029503;28;20318;-92
2023/12/07 00:19:03;;;;;;;28.38;23.42;;;;;;;-0.10;100.00;101823.28;1033818;28;20316;-92
2023/12/07 00:19:35;;;;;;;28.35;22.52;;;;;;;-0.16;100.00;101823.78;1034219;28;20313;-91
2023/12/07 00:20:07;;;;;;;27.60;21.55;;;;;;;-0.13;100.00;101820.91;1033574;28;20309;-92
2023/12/07 00:20:39;;;;;;;28.83;21.90;;;;;;;-0.11;100.00;101821.59;1043561;28;20659;-92
2023/12/07 00:21:11;;;;;;;30.20;22.98;;;;;;;-0.07;100.00;101829.09;1039406;28;20384;-92
2023/12/07 00:21:42;;;;;;;29.08;21.58;;;;;;;-0.03;100.00;101824.44;1035551;28;20310;-92
2023/12/07 00:22:14;;;;;;;33.38;23.02;;;;;;;-0.02;100.00;101820.88;1034120;28;20292;-92
2023/12/07 00:22:46;;;;;;;28.23;21.85;;;;;;;-0.01;100.00;101822.53;1042062;28;20311;-92
2023/12/07 00:23:18;;;;;;;27.88;22.48;;;;;;;-0.06;100.00;101824.69;1038717;28;20348;-92
2023/12/07 00:23:49;;;;;;;27.58;21.73;;;;;;;-0.04;100.00;101818.38;1039705;28;20307;-92
2023/12/07 00:24:21;;;;;;;29.33;21.48;;;;;;;0.02;100.00;101818.84;1034768;28;20301;-92
2023/12/07 00:24:53;;;;;;;28.77;22.40;;;;;;;-0.01;100.00;101822.53;1034022;28;20289;-91
2023/12/07 00:25:24;;;;;;;22.58;19.60;;;;;;;-0.11;100.00;101819.00;1035458;28;20301;-91
2023/12/07 00:25:56;;;;;;;26.33;20.85;;;;;;;-0.06;100.00;101822.91;1034794;28;20388;-92
2023/12/07 00:26:28;;;;;;;28.42;21.73;;;;;;;-0.09;100.00;101823.16;1035231;28;20281;-92
2023/12/07 00:26:59;;;;;;;25.52;21.02;;;;;;;-0.09;100.00;101822.31;1035156;28;20312;-91
2023/12/07 00:27:31;;;;;;;26.17;22.10;;;;;;;-0.16;100.00;101823.78;1030803;28;20341;-91
2023/12/07 00:28:03;;;;;;;26.88;21.67;;;;;;;-0.17;100.00;101828.16;1034204;28;20309;-92
2023/12/07 00:28:35;;;;;;;27.73;20.58;;;;;;;-0.10;100.00;101821.47;1039788;28;20667;-92
2023/12/07 00:29:07;;;;;;;25.70;20.65;;;;;;;-0.13;100.00;101823.53;1038516;28;20659;-91
2023/12/07 00:29:38;;;;;;;24.02;21.05;;;;;;;0.00;100.00;101818.97;1038750;28;20399;-92
2023/12/07 00:30:10;;;;;;;27.63;20.33;;;;;;;-0.11;100.00;101819.00;1034014;28;20321;-91
2023/12/07 00:30:42;;;;;;;24.20;20.23;;;;;;;-0.10;100.00;101824.09;1034313;28;20316;-91
2023/12/07 00:31:14;;;;;;;26.63;21.30;;;;;;;-0.11;100.00;101821.59;1039195;28;20372;-92
2023/12/07 00:31:45;;;;;;;23.95;19.25;;;;;;;-0.14;100.00;101821.84;1034400;28;20792;-91
2023/12/07 00:32:17;;;;;;;25.38;19.95;;;;;;;-0.20;100.00;101817.13;1034567;28;20393;-92
2023/12/07 00:32:49;;;;;;;22.50;19.27;;;;;;;-0.20;100.00;101822.34;1034837;28;20301;-92
2023/12/07 00:33:21;;;;;;;29.13;21.33;;;;;;;-0.18;100.00;101815.22;1035604;28;20290;-91
2023/12/07 00:33:53;;;;;;;25.17;20.73;;;;;;;-0.36;100.00;101818.31;1032518;28;20306;-92
2023/12/07 00:34:25;;;;;;;23.50;18.73;;;;;;;-0.36;100.00;101820.94;1030529;28;20282;-92
2023/12/07 00:34:56;;;;;;;24.15;19.83;;;;;;;-0.41;100.00;101820.47;1033991;28;20325;-92
2023/12/07 00:35:28;;;;;;;29.42;21.25;;;;;;;-0.17;100.00;101816.88;1033759;28;20345;-91
2023/12/07 00:36:00;;;;;;;26.20;20.90;;;;;;;-0.36;100.00;101818.31;1034759;28;20312;-92
2023/12/07 00:36:32;;;;;;;24.92;20.02;;;;;;;-0.42;100.00;101818.81;1027816;28;20311;-92
2023/12/07 00:37:04;;;;;;;23.80;19.70;;;;;;;-0.35;100.00;101817.38;1030871;28;20381;-92
2023/12/07 00:37:36;;;;;;;29.65;19.55;;;;;;;-0.39;100.00;101815.94;1034900;28;20301;-92
2023/12/07 00:38:08;;;;;;;26.98;20.27;;;;;;;-0.42;100.00;101818.81;1033770;28;20309;-92
2023/12/07 00:38:40;;;;;;;26.33;19.58;;;;;;;-0.45;100.00;101823.44;1030815;28;20317;-92
2023/12/07 00:39:12;;;;;;;27.55;21.33;;;;;;;-0.61;100.00;101815.97;1031025;28;20310;-92
2023/12/07 00:39:44;;;;;;;26.90;19.38;;;;;;;-0.64;100.00;101818.81;1034614;28;20301;-91
2023/12/07 00:40:16;;;;;;;23.73;18.83;;;;;;;-0.55;100.00;101820.69;1042412;28;20335;-92
2023/12/07 00:40:48;;;;;;;25.35;18.67;;;;;;;-0.67;100.00;101821.69;1035270;28;20304;-91
2023/12/07 00:41:19;;;;;;;23.70;18.90;;;;;;;-0.66;100.00;101820.72;1031113;28;20317;-92
2023/12/07 00:41:51;;;;;;;27.38;20.30;;;;;;;-0.57;100.00;101820.00;1032629;28;20302;-92
2023/12/07 00:42:23;;;;;;;20.58;17.80;;;;;;;-0.59;100.00;101821.91;1043560;28;20392;-91
2023/12/07 00:42:55;;;;;;;21.55;18.08;;;;;;;-0.56;100.00;101815.59;1038051;28;20450;-91
2023/12/07 00:43:26;;;;;;;24.27;19.67;;;;;;;-0.56;100.00;101821.66;1033827;28;20305;-92
2023/12/07 00:43:58;;;;;;;23.38;18.42;;;;;;;-0.73;100.00;101815.13;1031479;28;20402;-92
2023/12/07 00:44:30;;;;;;;21.52;18.58;;;;;;;-0.67;100.00;101819.06;1035251;28;20300;-92
2023/12/07 00:45:01;;;;;;;21.45;17.08;;;;;;;-0.53;100.00;101810.97;1030158;28;20312;-91
2023/12/07 00:45:33;;;;;;;25.95;17.55;;;;;;;-0.47;100.00;101813.09;1033644;28;20444;-92
2023/12/07 00:46:07;;;;;;;25.05;18.48;;;;;;;-0.59;100.00;101814.06;1033301;28;20395;-92
2023/12/07 00:46:39;;;;;;;22.02;18.10;;;;;;;-0.54;100.00;101819.78;1037386;28;20308;-92
2023/12/07 00:47:11;;;;;;;25.23;18.02;;;;;;;-0.50;100.00;101812.53;1033505;28;20314;-92
2023/12/07 00:47:43;;;;;;;22.42;16.35;;;;;;;-0.50;100.00;101821.19;1034121;28;20640;-91
2023/12/07 00:48:14;;;;;;;23.73;18.33;;;;;;;-0.52;100.00;101811.81;1033717;28;20348;-91
2023/12/07 00:48:46;;;;;;;25.85;18.20;;;;;;;-0.69;100.00;101820.97;1034737;28;20448;-91
2023/12/07 00:49:18;;;;;;;22.52;18.25;;;;;;;-0.76;100.00;101819.78;1034891;28;20372;-92
2023/12/07 00:49:49;;;;;;;22.25;18.55;;;;;;;-0.80;100.00;101816.56;1034891;28;20772;-91
2023/12/07 00:50:21;;;;;;;21.65;18.55;;;;;;;-0.71;100.00;101809.78;1034883;28;20803;-92
2023/12/07 00:50:53;;;;;;;23.33;18.77;;;;;;;-0.65;100.00;101822.38;1038331;28;20508;-92
2023/12/07 00:51:25;;;;;;;21.63;16.67;;;;;;;-0.68;100.00;101822.63;1030960;28;20301;-92
2023/12/07 00:51:56;;;;;;;26.10;19.50;;;;;;;-0.65;100.00;101822.38;1030910;28;20316;-91
2023/12/07 00:52:28;;;;;;;24.23;19.23;;;;;;;-0.70;100.00;101821.91;1039130;28;20362;-91
2023/12/07 00:53:00;;;;;;;22.05;18.63;;;;;;;-0.79;100.00;101825.25;1038445;28;20301;-92
2023/12/07 00:53:31;;;;;;;20.27;18.13;;;;;;;-0.74;100.00;101820.50;1030338;28;20302;-92
2023/12/07 00:54:03;;;;;;;24.65;19.67;;;;;;;-0.80;100.00;101818.34;1031319;28;20362;-91
2023/12/07 00:54:35;;;;;;;20.13;16.92;;;;;;;-0.70;100.00;101820.13;1035077;28;20316;-92
2023/12/07 00:55:06;;;;;;;21.08;17.63;;;;;;;-0.65;100.00;101819.78;1035451;28;20357;-92
2023/12/07 00:55:43;;;;;;;21.63;18.33;;;;;;;-0.66;100.00;101825.94;1034330;28;20285;-91
2023/12/07 00:56:14;;;;;;;21.02;18.75;;;;;;;-0.70;100.00;101825.38;1038287;28;20292;-91
2023/12/07 00:56:47;;;;;;;24.67;18.10;;;;;;;-0.80;100.00;101823.59;1035822;28;20443;-92
2023/12/07 00:57:19;;;;;;;21.88;17.13;;;;;;;-0.80;100.00;101818.34;1031101;28;20286;-92
2023/12/07 00:57:51;;;;;;;26.60;17.95;;;;;;;-0.89;100.00;101825.09;1030452;28;20298;-91
2023/12/07 00:58:23;;;;;;;20.10;17.30;;;;;;;-0.86;100.00;101821.41;1030369;28;20312;-92
2023/12/07 00:58:55;;;;;;;20.17;17.10;;;;;;;-0.91;100.00;101820.94;1038326;28;20806;-92
2023/12/07 00:59:26;;;;;;;23.00;17.92;;;;;;;-0.85;100.00;101815.25;1039055;28;20315;-92
2023/12/07 00:59:58;;;;;;;18.50;15.75;;;;;;;-0.87;100.00;101825.81;1039328;28;20304;-92
2023/12/07 01:00:30;;;;;;;19.90;15.25;;;;;;;-0.93;100.00;101829.75;1030894;28;20302;-92
2023/12/07 01:01:01;;;;;;;20.98;17.05;;;;;;;-1.02;100.00;101825.22;1035268;28;20392;-92
2023/12/07 01:01:33;;;;;;;23.30;18.30;;;;;;;-0.98;100.00;101826.66;1034415;28;20309;-92
2023/12/07 01:02:05;;;;;;;21.38;16.60;;;;;;;-0.83;100.00;101829.03;1035866;28;20301;-91
2023/12/07 01:02:37;;;;;;;22.02;17.45;;;;;;;-0.79;100.00;101830.47;1035091;28;20380;-91
2023/12/07 01:03:09;;;;;;;20.13;17.88;;;;;;;-0.86;100.00;101829.25;1035657;28;20372;-91
2023/12/07 01:03:40;;;;;;;20.85;16.38;;;;;;;-1.03;100.00;101830.56;1030728;28;20302;-92
2023/12/07 01:04:12;;;;;;;20.35;16.98;;;;;;;-1.05;100.00;101824.63;1034872;28;20293;-92
2023/12/07 01:04:44;;;;;;;23.77;16.65;;;;;;;-0.88;100.00;101826.78;1035748;28;20385;-91
2023/12/07 01:05:16;;;;;;;22.92;17.83;;;;;;;-0.81;100.00;101832.38;1035258;28;20413;-92
2023/12/07 01:05:48;;;;;;;21.00;17.55;;;;;;;-0.78;100.00;101835.59;1034869;28;20313;-91
2023/12/07 01:06:19;;;;;;;22.40;17.10;;;;;;;-0.79;100.00;101835.72;1031041;28;20343;-92
2023/12/07 01:06:52;;;;;;;21.52;16.88;;;;;;;-0.75;100.00;101837.13;1030149;28;20313;-91
2023/12/07 01:07:24;;;;;;;20.08;17.15;;;;;;;-0.81;100.00;101833.22;1035238;28;20322;-92
2023/12/07 01:07:56;;;;;;;21.52;17.80;;;;;;;-0.88;100.00;101833.78;1034724;28;20312;-91
2023/12/07 01:08:27;;;;;;;20.60;17.25;;;;;;;-0.86;100.00;101837.13;1034171;28;20285;-91
2023/12/07 01:08:59;;;;;;;22.80;17.35;;;;;;;-0.96;100.00;101839.59;1033461;28;20404;-91
2023/12/07 01:09:31;;;;;;;27.88;19.23;;;;;;;-0.85;100.00;101836.16;1029465;28;20321;-91
2023/12/07 01:10:03;;;;;;;20.70;17.65;;;;;;;-0.89;100.00;101837.34;1033232;28;20371;-91
2023/12/07 01:10:35;;;;;;;21.38;16.58;;;;;;;-1.00;100.00;101832.94;1034634;28;20286;-92
2023/12/07 01:11:07;;;;;;;18.50;16.50;;;;;;;-0.78;100.00;101830.38;1035424;28;20301;-92
2023/12/07 01:11:42;;;;;;;19.83;17.25;;;;;;;-0.83;100.00;101834.25;1041834;28;20308;-91
2023/12/07 01:12:14;;;;;;;25.45;17.58;;;;;;;-0.86;100.00;101839.72;1039338;28;20339;-91
2023/12/07 01:16:44;;;;;;;18.58;13.73;;;;;;;-0.59;100.00;101842.00;1046406;28;20318;-91
2023/12/07 01:17:16;;;;;;;20.50;14.68;;;;;;;-0.75;100.00;101837.13;1043165;28;20306;-91
2023/12/07 01:17:48;;;;;;;27.52;15.82;;;;;;;-0.81;100.00;101843.69;1035430;28;20305;-91
2023/12/07 01:18:20;;;;;;;20.83;15.07;;;;;;;-0.88;100.00;101842.47;1042915;28;20299;-91
2023/12/07 01:18:51;;;;;;;20.77;15.73;;;;;;;-0.92;100.00;101838.41;1038151;28;20307;-92
2023/12/07 01:19:25;;;;;;;19.48;14.27;;;;;;;-0.93;100.00;101829.75;1033432;28;20309;-92
2023/12/07 01:19:56;;;;;;;18.10;15.55;;;;;;;-0.80;100.00;101839.28;1035005;28;20321;-92
2023/12/07 01:20:28;;;;;;;20.00;14.98;;;;;;;-0.80;100.00;101844.50;1034959;28;20301;-91
2023/12/07 01:21:00;;;;;;;19.77;16.40;;;;;;;-0.88;100.00;101842.47;1031074;28;20317;-91
2023/12/07 01:21:32;;;;;;;20.92;16.00;;;;;;;-1.11;100.00;101843.38;1035196;28;20297;-92
2023/12/07 01:22:03;;;;;;;20.42;15.57;;;;;;;-1.02;100.00;101845.31;1030048;28;20397;-92
2023/12/07 01:22:35;;;;;;;20.55;16.65;;;;;;;-0.97;100.00;101844.00;1038710;28;20311;-92
2023/12/07 01:23:08;;;;;;;19.33;15.38;;;;;;;-0.58;100.00;101843.66;1039061;28;20323;-92
2023/12/07 01:23:42;;;;;;;18.67;15.00;;;;;;;-0.59;100.00;101847.22;1038792;28;20289;-91
2023/12/07 01:24:14;;;;;;;20.25;16.40;;;;;;;-0.71;100.00;101838.56;1037469;28;20324;-92
2023/12/07 01:24:48;;;;;;;19.75;17.05;;;;;;;-0.65;100.00;101845.94;1033892;28;20320;-92
2023/12/07 01:25:21;;;;;;;19.48;16.38;;;;;;;-0.60;100.00;101841.16;1035207;28;20305;-91
2023/12/07 01:25:54;;;;;;;21.65;17.65;;;;;;;-0.68;100.00;101840.94;1034778;28;20376;-92
2023/12/07 01:26:26;;;;;;;22.85;18.02;;;;;;;-0.87;100.00;101838.06;1034115;28;20297;-92
2023/12/07 01:26:58;;;;;;;24.60;17.17;;;;;;;-0.78;100.00;101838.22;1033672;28;20281;-92
2023/12/07 01:27:30;;;;;;;21.58;17.15;;;;;;;-0.72;100.00;101837.72;1038774;28;20381;-91
2023/12/07 01:28:02;;;;;;;23.60;17.17;;;;;;;-0.74;100.00;101833.56;1036653;28;20312;-92
2023/12/07 01:28:33;;;;;;;23.05;17.35;;;;;;;-0.88;100.00;101836.41;1038535;28;20688;-92
2023/12/07 01:29:05;;;;;;;20.45;15.55;;;;;;;-0.87;100.00;101835.44;1038478;28;20285;-92
2023/12/07 01:29:37;;;;;;;17.92;15.88;;;;;;;-0.85;100.00;101837.00;1033832;28;20434;-91
2023/12/07 01:30:09;;;;;;;19.60;16.45;;;;;;;-0.79;100.00;101839.16;1033190;28;20337;-92
2023/12/07 01:30:41;;;;;;;21.65;17.77;;;;;;;-0.76;100.00;101835.47;1029330;28;20302;-92
2023/12/07 01:31:13;;;;;;;21.90;18.40;;;;;;;-0.70;100.00;101837.63;1029342;28;20378;-92
2023/12/07 01:31:44;;;;;;;21.08;18.02;;;;;;;-0.82;100.00;101838.53;1033321;28;20691;-92
2023/12/07 01:32:16;;;;;;;25.88;18.42;;;;;;;-0.90;100.00;101838.31;1029397;28;20286;-92
2023/12/07 01:32:48;;;;;;;24.67;18.17;;;;;;;-1.02;100.00;101843.53;1037344;28;20853;-91
2023/12/07 01:33:20;;;;;;;23.38;18.85;;;;;;;-1.11;100.00;101836.38;1037395;28;20313;-92
2023/12/07 01:33:51;;;;;;;20.63;17.67;;;;;;;-1.06;100.00;101839.50;1029427;28;20668;-91
2023/12/07 01:34:23;;;;;;;25.85;18.35;;;;;;;-0.94;100.00;101841.16;1035055;28;20297;-91
2023/12/07 01:34:55;;;;;;;22.75;18.05;;;;;;;-0.94;100.00;101843.78;1042221;28;20296;-92
2023/12/07 01:35:28;;;;;;;28.27;16.85;;;;;;;-0.97;100.00;101841.38;1038709;28;20308;-92
2023/12/07 01:36:00;;;;;;;21.92;16.67;;;;;;;-0.94;100.00;101842.94;1030789;28;20333;-91
2023/12/07 01:36:31;;;;;;;24.38;18.20;;;;;;;-0.90;100.00;101839.13;1030382;28;20724;-92
2023/12/07 01:37:03;;;;;;;22.33;17.48;;;;;;;-0.84;100.00;101843.06;1034784;28;20309;-91
2023/12/07 01:37:35;;;;;;;23.35;17.92;;;;;;;-0.91;100.00;101837.47;1030587;28;20374;-91
2023/12/07 01:38:07;;;;;;;22.80;17.90;;;;;;;-0.85;100.00;101841.41;1034303;28;20309;-91
2023/12/07 01:38:38;;;;;;;21.67;17.80;;;;;;;-0.86;100.00;101839.72;1039125;28;20293;-91
2023/12/07 01:39:12;;;;;;;22.67;17.40;;;;;;;-0.98;100.00;101844.97;1038329;28;20368;-92
2023/12/07 01:39:44;;;;;;;19.73;16.80;;;;;;;-1.12;100.00;101844.31;1034210;28;20333;-92
2023/12/07 01:40:16;;;;;;;22.15;15.68;;;;;;;-1.06;100.00;101834.25;1034348;28;20309;-91
2023/12/07 01:40:48;;;;;;;21.45;17.60;;;;;;;-0.76;100.00;101841.53;1039000;28;20372;-92
2023/12/07 01:41:20;;;;;;;20.90;17.42;;;;;;;-0.80;100.00;101845.34;1031666;28;20412;-91
2023/12/07 01:41:52;;;;;;;24.40;17.48;;;;;;;-0.89;100.00;101839.97;1031429;28;20299;-92
2023/12/07 01:42:23;;;;;;;23.92;17.05;;;;;;;-0.87;100.00;101848.53;1029900;28;20301;-92
2023/12/07 01:42:56;;;;;;;22.63;17.58;;;;;;;-0.85;100.00;101841.41;1031335;28;20305;-92
2023/12/07 01:43:28;;;;;;;21.27;17.80;;;;;;;-0.98;100.00;101841.50;1036128;28;20305;-92
2023/12/07 01:44:00;;;;;;;23.67;18.13;;;;;;;-1.10;100.00;101837.19;1035178;28;20309;-91
2023/12/07 01:44:32;;;;;;;21.35;16.60;;;;;;;-1.34;100.00;101847.72;1032484;28;20302;-91
2023/12/07 01:45:05;;;;;;;22.45;16.27;;;;;;;-1.32;100.00;101843.22;1031984;28;20309;-91
2023/12/07 01:45:37;;;;;;;18.73;16.48;;;;;;;-1.42;100.00;101845.66;1030672;28;20317;-91
2023/12/07 01:46:09;;;;;;;19.65;16.52;;;;;;;-1.33;100.00;101841.56;1034435;28;20298;-91
2023/12/07 01:46:41;;;;;;;27.80;18.10;;;;;;;-1.09;100.00;101839.72;1038795;28;20806;-92
2023/12/07 01:47:13;;;;;;;21.58;17.90;;;;;;;-1.07;100.00;101837.81;1033542;28;20783;-91
2023/12/07 01:47:46;;;;;;;19.40;17.20;;;;;;;-1.17;100.00;101842.06;1029652;28;20761;-91
2023/12/07 01:48:20;;;;;;;22.20;17.08;;;;;;;-1.18;100.00;101845.63;1039166;28;20342;-91
2023/12/07 01:48:52;;;;;;;27.05;16.83;;;;;;;-1.21;100.00;101845.84;1038595;28;20380;-91
2023/12/07 01:49:24;;;;;;;22.85;16.58;;;;;;;-1.27;100.00;101841.09;1038526;28;20296;-91
2023/12/07 01:49:56;;;;;;;24.88;17.13;;;;;;;-1.36;100.00;101837.41;1025190;28;20302;-91
2023/12/07 01:50:28;;;;;;;20.17;17.52;;;;;;;-1.49;100.00;101836.63;1028708;28;20294;-91
2023/12/07 01:51:00;;;;;;;21.27;16.92;;;;;;;-1.56;100.00;101838.88;1028680;28;20306;-91
2023/12/07 01:51:32;;;;;;;21.90;17.95;;;;;;;-1.58;100.00;101835.53;1029775;28;20279;-91
2023/12/07 01:52:05;;;;;;;21.30;16.40;;;;;;;-1.60;100.00;101842.66;1033235;28;20395;-92
2023/12/07 01:52:39;;;;;;;22.73;16.98;;;;;;;-1.69;100.00;101845.09;1032396;28;20313;-91
2023/12/07 01:53:12;;;;;;;21.05;17.05;;;;;;;-1.67;100.00;101841.41;1028416;28;20361;-92
2023/12/07 01:53:44;;;;;;;21.20;17.45;;;;;;;-1.54;100.00;101843.16;1029105;28;20301;-92
2023/12/07 01:54:16;;;;;;;22.50;16.55;;;;;;;-1.50;100.00;101841.97;1027246;28;20801;-92
2023/12/07 01:54:48;;;;;;;23.98;16.73;;;;;;;-1.43;100.00;101843.16;1034461;28;20305;-91
2023/12/07 01:55:22;;;;;;;25.42;16.45;;;;;;;-1.41;100.00;101849.13;1030199;28;20302;-92
2023/12/07 01:55:54;;;;;;;20.88;17.38;;;;;;;-1.38;100.00;101843.66;1034020;28;20301;-91
2023/12/07 01:56:26;;;;;;;18.77;15.52;;;;;;;-1.70;100.00;101854.69;1033815;28;20332;-91
2023/12/07 01:56:57;;;;;;;19.65;15.13;;;;;;;-1.80;100.00;101842.44;1034250;28;20301;-92
2023/12/07 01:57:29;;;;;;;23.08;16.95;;;;;;;-1.84;100.00;101849.66;1037025;28;20305;-92
2023/12/07 01:58:01;;;;;;;21.98;16.95;;;;;;;-1.71;100.00;101842.59;1037888;28;20300;-92
2023/12/07 01:58:33;;;;;;;19.00;16.02;;;;;;;-1.71;100.00;101842.59;1033857;28;20389;-91
2023/12/07 01:59:05;;;;;;;20.73;15.77;;;;;;;-1.74;100.00;101849.81;1041890;28;20308;-92
2023/12/07 01:59:36;;;;;;;22.73;18.77;;;;;;;-1.85;100.00;101847.16;1047044;28;20307;-92
2023/12/07 02:00:09;;;;;;;20.13;16.75;;;;;;;-1.77;100.00;101847.44;1038512;28;20304;-91
2023/12/07 02:00:41;;;;;;;22.92;17.58;;;;;;;-1.82;100.00;101853.00;1037789;28;20281;-92
2023/12/07 02:01:13;;;;;;;25.63;18.33;;;;;;;-1.82;100.00;101849.56;1038264;28;20439;-91
2023/12/07 02:01:44;;;;;;;22.80;16.92;;;;;;;-1.86;100.00;101846.31;1033686;28;20301;-91
2023/12/07 02:02:17;;;;;;;21.83;14.15;;;;;;;-1.83;100.00;101847.88;1030545;28;20291;-91
2023/12/07 02:02:50;;;;;;;21.50;16.17;;;;;;;-1.87;100.00;101848.09;1033741;28;20297;-91
2023/12/07 02:03:23;;;;;;;21.10;16.95;;;;;;;-1.72;100.00;101851.38;1037334;28;20308;-92
2023/12/07 02:03:54;;;;;;;25.75;17.73;;;;;;;-1.65;100.00;101849.13;1037910;28;20289;-91
2023/12/07 02:04:27;;;;;;;19.35;16.27;;;;;;;-1.73;100.00;101854.94;1038028;28;20297;-91
2023/12/07 02:04:58;;;;;;;20.10;16.63;;;;;;;-1.60;100.00;101850.50;1030613;28;20302;-92
2023/12/07 02:05:31;;;;;;;28.75;16.65;;;;;;;-1.74;100.00;101855.88;1030137;28;20286;-91
2023/12/07 02:06:03;;;;;;;38.78;19.00;;;;;;;-1.83;100.00;101853.94;1032907;28;20304;-91
2023/12/07 02:06:35;;;;;;;36.15;18.60;;;;;;;-1.74;100.00;101848.03;1037741;28;20324;-91
2023/12/07 02:07:06;;;;;;;57.05;20.50;;;;;;;-1.74;100.00;101853.25;1034925;28;20968;-90
2023/12/07 02:07:40;;;;;;;79.05;20.77;;;;;;;-1.70;100.00;101849.47;1031264;28;20285;-91
2023/12/07 02:08:12;;;;;;;33.45;16.73;;;;;;;-1.68;100.00;101854.59;1030326;28;20304;-91
2023/12/07 02:08:44;;;;;;;49.55;20.17;;;;;;;-1.75;100.00;101855.97;1025416;28;20781;-91
2023/12/07 02:09:16;;;;;;;146.73;24.35;;;;;;;-1.91;100.00;101851.88;1031472;28;20668;-91
2023/12/07 02:09:48;;;;;;;62.15;20.10;;;;;;;-1.69;100.00;101855.53;1029969;28;20309;-91
2023/12/07 02:10:20;;;;;;;28.65;18.02;;;;;;;-1.50;100.00;101853.25;1034330;28;20398;-91
2023/12/07 02:10:52;;;;;;;65.70;19.52;;;;;;;-1.80;100.00;101852.88;1033150;28;20391;-91
2023/12/07 02:11:24;;;;;;;40.28;17.23;;;;;;;-1.84;100.00;101852.28;1034141;28;20369;-91
2023/12/07 02:11:56;;;;;;;33.72;18.15;;;;;;;-1.83;100.00;101853.94;1025301;29;20306;-91
2023/12/07 02:12:29;;;;;;;121.82;21.75;;;;;;;-1.97;100.00;101851.47;1033499;28;20401;-91
2023/12/07 02:13:01;;;;;;;37.85;19.02;;;;;;;-1.80;100.00;101853.72;1028353;28;20302;-91
2023/12/07 02:13:33;;;;;;;49.15;18.95;;;;;;;-1.87;100.00;101858.56;1032450;28;20312;-91
2023/12/07 02:14:05;;;;;;;33.80;19.10;;;;;;;-1.82;100.00;101855.59;1037397;28;20356;-91
2023/12/07 02:14:36;;;;;;;21.80;16.65;;;;;;;-1.88;100.00;101856.88;1035492;28;20293;-91
2023/12/07 02:15:08;;;;;;;23.63;18.35;;;;;;;-1.82;100.00;101850.38;1037911;28;20303;-91
2023/12/07 02:15:40;;;;;;;21.75;17.70;;;;;;;-1.74;100.00;101853.25;1032853;28;20301;-91
2023/12/07 02:16:19;;;;;;;21.27;18.05;;;;;;;-1.64;100.00;101849.06;1033780;28;20410;-91
2023/12/07 02:16:57;;;;;;;22.42;17.63;;;;;;;-1.73;100.00;101856.72;1032808;28;20306;-91
2023/12/07 02:17:36;;;;;;;22.17;17.98;;;;;;;-1.68;100.00;101852.81;1033310;28;20308;-90
2023/12/07 02:18:16;;;;;;;27.63;16.90;;;;;;;-1.79;100.00;101851.94;1026332;28;20294;-91
2023/12/07 02:19:12;;;;;;;26.05;18.10;;;;;;;-1.75;100.00;101855.97;1028678;28;20301;-91
2023/12/07 02:19:59;;;;;;;25.20;18.15;;;;;;;-1.87;100.00;101852.50;1028417;28;20047;-91
2023/12/07 02:21:04;;;;;;;25.73;17.65;;;;;;;-1.73;100.00;101852.31;1032795;28;20332;-91
2023/12/07 02:21:42;;;;;;;22.05;17.60;;;;;;;-1.88;100.00;101856.06;1028070;28;20353;-91
2023/12/07 02:22:29;;;;;;;25.75;16.05;;;;;;;-1.83;100.00;101853.94;1031565;28;20302;-91
2023/12/07 02:23:02;;;;;;;27.05;16.10;;;;;;;-1.86;100.00;101859.38;1034325;28;20305;-91
2023/12/07 02:23:35;;;;;;;23.05;17.90;;;;;;;-2.04;100.00;101855.47;1035804;28;20297;-91
2023/12/07 02:24:21;;;;;;;21.63;16.48;;;;;;;-2.08;100.00;101854.03;1028209;28;20318;-91
2023/12/07 02:25:06;;;;;;;23.00;16.63;;;;;;;-2.22;100.00;101858.44;1033624;28;20313;-91
2023/12/07 02:25:48;;;;;;;27.27;16.48;;;;;;;-2.33;100.00;101845.31;1032749;28;20302;-91
2023/12/07 02:26:21;;;;;;;24.95;17.42;;;;;;;-2.28;100.00;101853.66;1029508;28;20308;-90
2023/12/07 02:26:53;;;;;;;23.42;16.83;;;;;;;-2.38;100.00;101855.25;1029892;28;20309;-91
2023/12/07 02:27:41;;;;;;;26.58;17.25;;;;;;;-2.38;100.00;101847.44;1033934;28;20309;-89
2023/12/07 02:28:13;;;;;;;22.75;16.75;;;;;;;-2.43;100.00;101848.69;1038085;28;20293;-91
2023/12/07 02:28:44;;;;;;;21.25;15.95;;;;;;;-2.39;100.00;101850.97;1036380;28;20300;-91
2023/12/07 02:29:16;;;;;;;21.90;17.75;;;;;;;-2.43;100.00;101859.13;1028904;28;20374;-91
2023/12/07 02:29:48;;;;;;;19.77;16.45;;;;;;;-2.46;100.00;101848.91;1026051;29;20310;-91
2023/12/07 02:30:19;;;;;;;21.13;18.73;;;;;;;-2.35;100.00;101851.59;1029322;28;20302;-91
2023/12/07 02:30:51;;;;;;;20.88;17.38;;;;;;;-2.37;100.00;101848.25;1037735;28;20300;-91